Time;durP1;ratioP1;P1;durP2;ratioP2;P2;SDS_P1;SDS_P2;PMS_P1;PMS_P2;Temp;Humidity;BMP_temperature;BMP_pressure;BME280_temperature;BME280_humidity;BME280_pressure;Samples;Min_cycle;Max_cycle;Signal;HPM_P1;HPM_P2
2021/05/30 00:02:22;;;;;;;11.25;5.78;;;11.40;99.90;;;;;;4753704;30;20247;-85
2021/05/30 00:04:48;;;;;;;10.40;5.80;;;11.30;99.90;;;;;;4723635;30;20282;-85
2021/05/30 00:07:14;;;;;;;8.17;5.77;;;11.20;99.90;;;;;;4737808;30;20190;-86
2021/05/30 00:09:40;;;;;;;8.43;5.53;;;11.20;99.90;;;;;;4753973;30;20190;-85
2021/05/30 00:12:08;;;;;;;12.77;6.00;;;11.10;99.90;;;;;;4738159;30;20194;-85
2021/05/30 00:14:33;;;;;;;7.68;5.30;;;10.80;99.90;;;;;;4753921;30;20221;-87
2021/05/30 00:16:59;;;;;;;9.27;5.07;;;;;;;;;;4738331;30;20191;-86
2021/05/30 00:19:25;;;;;;;8.37;5.57;;;10.90;99.90;;;;;;4753820;30;20190;-86
2021/05/30 00:21:51;;;;;;;13.53;6.27;;;10.80;99.90;;;;;;4753836;30;20195;-85
2021/05/30 00:24:17;;;;;;;8.33;5.50;;;10.80;99.90;;;;;;4737207;30;20250;-85
2021/05/30 00:26:43;;;;;;;8.55;5.90;;;10.80;99.90;;;;;;4738043;30;20193;-86
2021/05/30 00:29:10;;;;;;;10.23;6.75;;;10.70;99.90;;;;;;4737471;30;20222;-86
2021/05/30 00:31:35;;;;;;;10.37;7.17;;;10.80;99.90;;;;;;4753775;30;20190;-86
2021/05/30 00:34:01;;;;;;;9.07;6.33;;;;;;;;;;4737558;30;20632;-86
2021/05/30 00:36:27;;;;;;;12.70;7.53;;;10.70;99.90;;;;;;4753180;30;20195;-86
2021/05/30 00:38:53;;;;;;;20.20;8.20;;;10.70;99.90;;;;;;4737310;30;20194;-86
2021/05/30 00:41:18;;;;;;;15.90;6.77;;;10.70;99.90;;;;;;4737311;30;20199;-86
2021/05/30 00:43:54;;;;;;;9.33;7.17;;;10.70;99.90;;;;;;4722899;30;20654;-86
2021/05/30 00:46:21;;;;;;;10.17;7.63;;;10.70;99.90;;;;;;4737129;30;20626;-86
2021/05/30 00:48:48;;;;;;;12.17;7.50;;;10.80;99.90;;;;;;4737353;30;20182;-86
2021/05/30 00:51:14;;;;;;;12.27;8.23;;;10.70;99.90;;;;;;4737183;30;20214;-86
2021/05/30 00:53:41;;;;;;;11.83;7.77;;;10.80;99.90;;;;;;4722933;30;20219;-86
2021/05/30 00:56:09;;;;;;;12.73;7.93;;;10.70;99.90;;;;;;4723283;30;20222;-85
2021/05/30 00:58:35;;;;;;;13.55;8.35;;;10.80;99.90;;;;;;4753740;30;20273;-86
2021/05/30 01:01:01;;;;;;;12.03;7.43;;;10.80;99.90;;;;;;4753569;30;20293;-86
2021/05/30 01:03:27;;;;;;;12.13;8.20;;;10.70;99.90;;;;;;4737087;30;20245;-86
2021/05/30 01:05:53;;;;;;;10.57;8.13;;;10.70;99.90;;;;;;4752992;30;20201;-86
2021/05/30 01:08:26;;;;;;;12.93;9.17;;;10.70;99.90;;;;;;4752865;30;20191;-87
2021/05/30 01:10:57;;;;;;;12.82;9.05;;;10.70;99.90;;;;;;4753389;30;20657;-86
2021/05/30 01:13:25;;;;;;;11.97;7.77;;;10.70;99.90;;;;;;4736902;30;20198;-86
2021/05/30 01:15:51;;;;;;;14.50;8.63;;;10.70;99.90;;;;;;4752804;30;20258;-86
2021/05/30 01:18:22;;;;;;;12.95;8.82;;;10.70;99.90;;;;;;4756352;30;20174;-86
2021/05/30 01:20:51;;;;;;;15.13;8.90;;;10.70;99.90;;;;;;4775810;30;20190;-85
2021/05/30 01:23:18;;;;;;;13.90;8.53;;;10.70;99.90;;;;;;4768601;30;20241;-85
2021/05/30 01:25:46;;;;;;;12.80;8.57;;;10.70;99.90;;;;;;4752838;30;20207;-86
2021/05/30 01:28:12;;;;;;;15.25;9.30;;;10.70;99.90;;;;;;4736745;30;20664;-85
2021/05/30 01:30:38;;;;;;;13.80;8.73;;;10.60;99.90;;;;;;4722656;30;20650;-86
2021/05/30 01:33:04;;;;;;;11.70;8.23;;;10.70;99.90;;;;;;4736898;30;20195;-86
2021/05/30 01:35:30;;;;;;;13.18;9.02;;;10.60;99.90;;;;;;4736648;30;20773;-86
2021/05/30 01:37:56;;;;;;;16.48;9.32;;;10.60;99.90;;;;;;4739456;30;20688;-85
2021/05/30 01:40:23;;;;;;;14.47;8.27;;;10.60;99.90;;;;;;4740538;30;20214;-86
2021/05/30 01:42:50;;;;;;;13.87;8.40;;;10.60;99.90;;;;;;4747921;30;20194;-84
2021/05/30 01:45:17;;;;;;;12.50;7.93;;;10.70;99.90;;;;;;4740748;30;20191;-85
2021/05/30 01:47:45;;;;;;;12.17;8.53;;;10.60;99.90;;;;;;4752573;30;20260;-85
2021/05/30 01:50:14;;;;;;;13.67;9.03;;;10.60;99.90;;;;;;4752201;30;20186;-84
2021/05/30 01:52:40;;;;;;;11.13;8.10;;;10.60;99.90;;;;;;4752502;30;20186;-85
2021/05/30 01:55:08;;;;;;;16.02;8.73;;;10.60;99.90;;;;;;4752281;30;20235;-85
2021/05/30 01:57:43;;;;;;;12.63;8.10;;;10.60;99.90;;;;;;4752054;30;20185;-85
2021/05/30 02:00:09;;;;;;;15.43;8.40;;;10.60;99.90;;;;;;4736445;30;20644;-85
2021/05/30 02:02:36;;;;;;;12.00;7.40;;;10.60;99.90;;;;;;4736374;30;20256;-85
2021/05/30 02:05:01;;;;;;;14.77;7.57;;;10.50;99.90;;;;;;4736656;30;20195;-86
2021/05/30 02:07:27;;;;;;;14.03;8.87;;;10.50;99.90;;;;;;4736015;30;20724;-85
2021/05/30 02:09:54;;;;;;;11.10;8.45;;;10.50;99.90;;;;;;4721672;30;20237;-86
2021/05/30 02:12:21;;;;;;;11.63;7.50;;;10.50;99.90;;;;;;4736178;30;20765;-85
2021/05/30 02:14:47;;;;;;;13.30;8.03;;;10.50;99.90;;;;;;4752720;30;20234;-85
2021/05/30 02:17:13;;;;;;;11.57;8.20;;;10.50;99.90;;;;;;4736362;30;20217;-86
2021/05/30 02:19:38;;;;;;;9.70;7.73;;;10.50;99.90;;;;;;4721888;30;20197;-85
2021/05/30 02:22:04;;;;;;;14.30;8.48;;;10.50;99.90;;;;;;4736359;30;20254;-85
2021/05/30 02:24:30;;;;;;;13.27;8.27;;;10.40;99.90;;;;;;4735516;30;20257;-85
2021/05/30 02:26:56;;;;;;;10.70;8.02;;;10.50;99.90;;;;;;4751961;30;20274;-85
2021/05/30 02:29:35;;;;;;;11.40;7.67;;;10.50;99.90;;;;;;4721521;30;20649;-85
2021/05/30 02:32:02;;;;;;;14.87;8.37;;;10.40;99.90;;;;;;4753552;30;20241;-85
2021/05/30 02:34:28;;;;;;;12.80;9.00;;;10.40;99.90;;;;;;4755194;30;20215;-85
2021/05/30 02:36:54;;;;;;;11.53;8.47;;;10.10;99.90;;;;;;4739589;30;20187;-85
2021/05/30 02:39:19;;;;;;;12.33;8.33;;;10.50;99.90;;;;;;4754994;30;20190;-85
2021/05/30 02:41:45;;;;;;;11.73;8.63;;;10.50;99.90;;;;;;4755317;30;20215;-85
2021/05/30 02:44:11;;;;;;;11.07;8.13;;;10.40;99.90;;;;;;4724949;30;20195;-85
2021/05/30 02:46:36;;;;;;;10.23;8.10;;;10.50;99.90;;;;;;4755469;30;20233;-85
2021/05/30 02:49:02;;;;;;;11.30;7.33;;;10.40;99.90;;;;;;4755763;30;20258;-86
2021/05/30 02:51:28;;;;;;;12.47;8.33;;;10.40;99.90;;;;;;4739258;30;20205;-85
2021/05/30 02:53:54;;;;;;;10.87;8.23;;;10.40;99.90;;;;;;4725344;30;20614;-86
2021/05/30 02:56:19;;;;;;;12.53;8.27;;;10.40;99.90;;;;;;4724786;30;20679;-85
2021/05/30 02:58:45;;;;;;;10.77;7.83;;;10.40;99.90;;;;;;4725004;30;20224;-85
2021/05/30 03:01:11;;;;;;;13.13;8.17;;;10.40;99.90;;;;;;4755319;30;20197;-85
2021/05/30 03:03:36;;;;;;;10.97;8.00;;;10.40;99.90;;;;;;4739528;30;20198;-85
2021/05/30 03:06:02;;;;;;;12.13;8.57;;;10.40;99.90;;;;;;4724957;30;20633;-85
2021/05/30 03:08:28;;;;;;;12.73;8.20;;;10.40;99.90;;;;;;4754952;30;20194;-85
2021/05/30 03:10:54;;;;;;;12.60;7.97;;;10.30;99.90;;;;;;4724947;30;20638;-86
2021/05/30 03:13:20;;;;;;;11.57;7.73;;;10.30;99.90;;;;;;4754966;30;20230;-85
2021/05/30 03:15:45;;;;;;;9.53;7.27;;;10.30;99.90;;;;;;4739341;30;20226;-85
2021/05/30 03:18:11;;;;;;;10.87;8.10;;;10.30;99.90;;;;;;4724403;30;20194;-85
2021/05/30 03:20:37;;;;;;;10.70;8.20;;;10.30;99.90;;;;;;4738613;30;20265;-85
2021/05/30 03:23:03;;;;;;;10.73;8.20;;;10.30;99.90;;;;;;4738911;30;20653;-85
2021/05/30 03:25:29;;;;;;;11.67;8.37;;;10.30;99.90;;;;;;4754299;30;20191;-85
2021/05/30 03:27:54;;;;;;;11.60;8.10;;;10.30;99.90;;;;;;4754793;30;20273;-85
2021/05/30 03:30:20;;;;;;;12.07;9.00;;;10.30;99.90;;;;;;4754602;30;20198;-85
2021/05/30 03:32:46;;;;;;;11.80;8.10;;;10.30;99.90;;;;;;4724363;30;20274;-85
2021/05/30 03:35:12;;;;;;;11.17;8.53;;;10.30;99.90;;;;;;4738785;30;20651;-84
2021/05/30 03:37:37;;;;;;;11.10;7.87;;;10.30;99.90;;;;;;4723822;30;20628;-85
2021/05/30 03:40:13;;;;;;;10.77;7.50;;;10.30;99.90;;;;;;4754441;30;20229;-84
2021/05/30 03:42:47;;;;;;;13.13;8.10;;;10.30;99.90;;;;;;4739280;30;20179;-83
2021/05/30 03:45:13;;;;;;;12.00;7.77;;;10.30;99.90;;;;;;4739417;30;20264;-84
2021/05/30 03:47:39;;;;;;;13.57;7.93;;;10.50;99.90;;;;;;4738019;30;20194;-84
2021/05/30 03:50:05;;;;;;;12.73;8.30;;;10.40;99.90;;;;;;4754316;30;20186;-84
2021/05/30 03:52:30;;;;;;;14.13;8.07;;;10.30;99.90;;;;;;4753798;30;20222;-85
2021/05/30 03:54:56;;;;;;;11.07;7.43;;;10.40;99.90;;;;;;4724098;30;20261;-85
2021/05/30 03:57:22;;;;;;;12.97;8.63;;;10.40;99.90;;;;;;4754226;30;20616;-85
2021/05/30 03:59:47;;;;;;;12.60;8.10;;;10.40;99.90;;;;;;4723476;30;20277;-84
2021/05/30 04:02:13;;;;;;;10.47;8.07;;;10.40;99.90;;;;;;4738202;30;20694;-84
2021/05/30 04:04:39;;;;;;;15.77;9.00;;;10.30;99.90;;;;;;4753884;30;20194;-85
2021/05/30 04:07:04;;;;;;;11.40;7.83;;;10.40;99.90;;;;;;4737947;30;20658;-85
2021/05/30 04:09:31;;;;;;;11.63;8.23;;;10.40;99.90;;;;;;4708736;30;20199;-84
2021/05/30 04:11:58;;;;;;;12.53;9.03;;;10.30;99.90;;;;;;4738528;30;20244;-85
2021/05/30 04:14:24;;;;;;;14.57;9.20;;;10.30;99.90;;;;;;4753818;30;20673;-85
2021/05/30 04:16:50;;;;;;;13.67;9.17;;;10.40;99.90;;;;;;4737892;30;20250;-84
2021/05/30 04:19:15;;;;;;;12.73;8.83;;;10.40;99.90;;;;;;4738095;30;20190;-85
2021/05/30 04:21:41;;;;;;;10.37;8.37;;;;;;;;;;4723157;30;20528;-85
2021/05/30 04:24:07;;;;;;;11.17;8.23;;;10.40;99.90;;;;;;4754047;30;20292;-85
2021/05/30 04:26:34;;;;;;;11.73;8.27;;;10.50;99.90;;;;;;4737786;30;20285;-85
2021/05/30 04:29:00;;;;;;;15.03;7.87;;;10.40;99.90;;;;;;4723443;30;20194;-85
2021/05/30 04:31:26;;;;;;;15.88;8.27;;;10.40;99.90;;;;;;4753783;30;20277;-85
2021/05/30 04:33:52;;;;;;;10.97;8.17;;;10.50;99.90;;;;;;4723154;30;20200;-85
2021/05/30 04:36:20;;;;;;;10.65;7.90;;;10.50;99.90;;;;;;4725856;30;20297;-85
2021/05/30 04:38:46;;;;;;;14.53;8.03;;;10.50;99.90;;;;;;4712107;30;20194;-85
2021/05/30 04:41:11;;;;;;;14.03;8.70;;;10.50;99.90;;;;;;4733590;30;20197;-84
2021/05/30 04:43:37;;;;;;;10.83;7.37;;;;;;;;;;4728101;30;20190;-84
2021/05/30 04:46:03;;;;;;;11.13;7.78;;;10.40;99.90;;;;;;4753361;30;20641;-84
2021/05/30 04:48:29;;;;;;;13.10;7.87;;;10.50;99.90;;;;;;4722568;30;20195;-84
2021/05/30 04:51:08;;;;;;;11.47;8.33;;;10.50;99.90;;;;;;4737283;30;20214;-84
2021/05/30 04:53:38;;;;;;;12.27;7.85;;;10.50;99.90;;;;;;4738819;30;20239;-84
2021/05/30 04:56:05;;;;;;;13.53;8.00;;;12.50;99.90;;;;;;4752775;30;20276;-84
2021/05/30 04:58:32;;;;;;;14.77;8.50;;;10.90;99.90;;;;;;4722477;30;20611;-84
2021/05/30 05:00:59;;;;;;;11.83;7.10;;;10.50;99.90;;;;;;4737238;30;20190;-83
2021/05/30 05:03:24;;;;;;;10.20;7.73;;;10.50;99.90;;;;;;4752890;30;20183;-84
2021/05/30 05:05:54;;;;;;;10.70;7.80;;;10.60;99.90;;;;;;4753094;30;20206;-84
2021/05/30 05:08:21;;;;;;;10.27;7.70;;;10.60;99.90;;;;;;4737209;30;20195;-84
2021/05/30 05:10:47;;;;;;;10.53;6.97;;;10.60;99.90;;;;;;4752706;30;20262;-84
2021/05/30 05:13:14;;;;;;;10.77;7.72;;;10.60;99.90;;;;;;4752760;30;20187;-84
2021/05/30 05:15:43;;;;;;;13.70;7.63;;;10.70;99.90;;;;;;4736368;30;20221;-84
2021/05/30 05:18:33;;;;;;;10.40;7.43;;;10.70;99.90;;;;;;4752728;30;20198;-84
2021/05/30 05:21:00;;;;;;;8.88;6.65;;;10.70;99.90;;;;;;4736956;30;20194;-85
2021/05/30 05:23:26;;;;;;;8.75;6.55;;;10.70;99.90;;;;;;4737049;30;20726;-85
2021/05/30 05:25:53;;;;;;;8.50;6.50;;;10.70;99.90;;;;;;4752307;30;20652;-85
2021/05/30 05:28:21;;;;;;;9.40;6.87;;;10.80;99.90;;;;;;4752552;30;20198;-85
2021/05/30 05:30:50;;;;;;;8.48;6.30;;;10.90;99.90;;;;;;4736686;30;20665;-83
2021/05/30 05:33:16;;;;;;;9.07;6.97;;;10.90;99.90;;;;;;4752735;30;20190;-83
2021/05/30 05:35:42;;;;;;;9.73;6.83;;;10.90;99.90;;;;;;4736240;30;20233;-83
2021/05/30 05:38:08;;;;;;;10.50;7.03;;;10.90;99.90;;;;;;4752259;30;20641;-84
2021/05/30 05:40:35;;;;;;;9.43;6.55;;;11.30;99.90;;;;;;4752089;30;20187;-83
2021/05/30 05:43:00;;;;;;;7.82;6.35;;;11.20;99.90;;;;;;4721998;30;20285;-83
2021/05/30 05:45:26;;;;;;;9.00;6.78;;;11.20;99.90;;;;;;4736688;30;20733;-85
2021/05/30 05:47:52;;;;;;;10.75;7.40;;;11.30;99.90;;;;;;4735880;30;20278;-85
2021/05/30 05:50:20;;;;;;;8.98;6.35;;;11.30;99.90;;;;;;4751968;30;20183;-85
2021/05/30 05:52:46;;;;;;;15.80;7.25;;;11.40;99.90;;;;;;4752287;30;20189;-85
2021/05/30 05:55:13;;;;;;;11.00;6.30;;;11.40;99.90;;;;;;4751948;30;20217;-84
2021/05/30 05:57:40;;;;;;;11.27;7.35;;;11.40;99.90;;;;;;4736137;30;20214;-84
2021/05/30 06:00:08;;;;;;;9.65;6.22;;;11.30;99.90;;;;;;4752492;30;20195;-85
2021/05/30 06:02:34;;;;;;;7.95;5.93;;;11.50;99.90;;;;;;4729267;30;20227;-85
2021/05/30 06:04:59;;;;;;;10.50;6.90;;;11.20;99.90;;;;;;4745648;30;21776;-84
2021/05/30 06:07:25;;;;;;;9.27;6.75;;;;;;;;;;4728812;30;20205;-86
2021/05/30 06:09:51;;;;;;;8.48;6.32;;;11.20;99.90;;;;;;4772426;30;20198;-85
2021/05/30 06:12:17;;;;;;;9.73;6.85;;;11.20;99.90;;;;;;4771813;30;20198;-87
2021/05/30 06:14:45;;;;;;;8.57;6.25;;;11.30;99.90;;;;;;4740952;30;20690;-85
2021/05/30 06:17:11;;;;;;;9.20;6.45;;;11.30;99.90;;;;;;4734585;30;20206;-86
2021/05/30 06:19:37;;;;;;;8.95;6.28;;;11.30;99.90;;;;;;4750381;30;20217;-86
2021/05/30 06:22:04;;;;;;;8.40;6.60;;;11.20;99.90;;;;;;4737271;30;20572;-85
2021/05/30 06:24:31;;;;;;;7.97;6.60;;;11.30;99.90;;;;;;4722647;30;20246;-86
2021/05/30 06:26:58;;;;;;;6.57;5.72;;;11.30;99.90;;;;;;4747498;30;20281;-85
2021/05/30 06:29:24;;;;;;;10.02;6.22;;;11.30;99.90;;;;;;4727183;30;20630;-88
2021/05/30 06:31:50;;;;;;;10.32;5.80;;;11.40;99.90;;;;;;4734498;30;20290;-86
2021/05/30 06:34:16;;;;;;;8.27;6.53;;;11.40;99.90;;;;;;4734429;30;20187;-86
2021/05/30 06:36:43;;;;;;;7.63;6.28;;;11.40;99.90;;;;;;4750383;30;20246;-86
2021/05/30 06:39:09;;;;;;;7.00;5.80;;;11.40;99.90;;;;;;4735087;30;20414;-86
2021/05/30 06:41:36;;;;;;;7.63;5.70;;;11.40;99.90;;;;;;4758883;30;20228;-86
2021/05/30 06:44:04;;;;;;;9.32;6.82;;;11.40;99.90;;;;;;4755176;30;20201;-86
2021/05/30 06:46:29;;;;;;;6.72;5.55;;;11.40;99.90;;;;;;4756191;30;20201;-86
2021/05/30 06:48:55;;;;;;;7.63;6.20;;;11.40;99.90;;;;;;4753094;30;20206;-85
2021/05/30 06:51:22;;;;;;;7.95;6.38;;;11.40;99.90;;;;;;4749147;30;20234;-85
2021/05/30 06:53:50;;;;;;;7.00;5.82;;;11.40;99.90;;;;;;4748296;30;20221;-87
2021/05/30 06:56:17;;;;;;;7.65;5.75;;;11.40;99.90;;;;;;4733858;30;20226;-87
2021/05/30 06:58:43;;;;;;;10.80;5.75;;;11.40;99.90;;;;;;4734258;30;20199;-83
2021/05/30 07:01:09;;;;;;;6.15;5.55;;;11.40;99.90;;;;;;4733920;30;20230;-86
2021/05/30 07:03:35;;;;;;;8.43;5.70;;;11.40;99.90;;;;;;4733782;30;20230;-84
2021/05/30 07:06:01;;;;;;;7.68;5.65;;;11.40;99.90;;;;;;4733762;30;20218;-85
2021/05/30 07:08:27;;;;;;;7.45;6.22;;;11.40;99.90;;;;;;4733982;30;20599;-85
2021/05/30 07:10:53;;;;;;;10.13;5.93;;;11.50;99.90;;;;;;4748913;30;20886;-86
2021/05/30 07:13:19;;;;;;;8.10;7.05;;;11.50;99.90;;;;;;4748525;30;20194;-85
2021/05/30 07:15:48;;;;;;;7.43;6.65;;;11.50;99.90;;;;;;4733972;30;20608;-85
2021/05/30 07:18:14;;;;;;;9.93;6.13;;;11.60;99.90;;;;;;4751252;30;20695;-84
2021/05/30 07:20:43;;;;;;;6.03;5.43;;;11.60;99.90;;;;;;4752757;30;20206;-85
2021/05/30 07:23:09;;;;;;;6.13;5.53;;;11.60;99.90;;;;;;4749362;30;20283;-85
2021/05/30 07:25:35;;;;;;;6.85;5.55;;;11.60;99.90;;;;;;4752858;30;20691;-86
2021/05/30 07:28:01;;;;;;;9.32;6.22;;;11.70;99.90;;;;;;4719335;30;20732;-87
2021/05/30 07:30:26;;;;;;;8.07;6.50;;;11.70;99.90;;;;;;4752671;30;20270;-86
2021/05/30 07:32:52;;;;;;;5.82;5.00;;;11.80;99.90;;;;;;4751422;30;20282;-85
2021/05/30 07:35:18;;;;;;;6.82;5.32;;;11.80;99.90;;;;;;4724868;30;20579;-84
2021/05/30 07:37:44;;;;;;;7.65;6.20;;;11.90;99.90;;;;;;4750369;30;20282;-83
2021/05/30 07:40:10;;;;;;;9.25;6.47;;;11.80;99.90;;;;;;4751967;30;20540;-83
2021/05/30 07:42:36;;;;;;;7.88;6.45;;;11.70;99.90;;;;;;4736860;30;20199;-84
2021/05/30 07:45:03;;;;;;;6.35;5.60;;;11.80;99.90;;;;;;4736580;30;20345;-84
2021/05/30 07:47:29;;;;;;;9.63;6.28;;;11.70;99.90;;;;;;4736416;30;20669;-85
2021/05/30 07:49:55;;;;;;;8.23;6.22;;;11.80;99.90;;;;;;4751398;30;20599;-88
2021/05/30 07:52:21;;;;;;;7.68;6.25;;;11.80;99.90;;;;;;4752182;30;20199;-85
2021/05/30 07:54:47;;;;;;;8.75;5.65;;;11.80;99.90;;;;;;4736043;30;20236;-86
2021/05/30 07:57:12;;;;;;;6.13;5.47;;;11.90;99.90;;;;;;4750983;30;20198;-87
2021/05/30 07:59:38;;;;;;;8.82;5.88;;;11.90;99.90;;;;;;4736120;30;20191;-85
2021/05/30 08:02:04;;;;;;;6.95;5.00;;;11.90;99.90;;;;;;4752295;30;20689;-85
2021/05/30 08:04:29;;;;;;;6.55;5.55;;;11.90;99.90;;;;;;4718952;30;20211;-85
2021/05/30 08:06:55;;;;;;;7.00;5.70;;;12.00;99.90;;;;;;4736548;30;20197;-85
2021/05/30 08:09:21;;;;;;;7.13;5.60;;;12.10;99.90;;;;;;4750957;30;20229;-86
2021/05/30 08:11:47;;;;;;;7.45;5.47;;;12.20;99.90;;;;;;4721839;30;20282;-86
2021/05/30 08:14:25;;;;;;;6.88;5.15;;;12.40;99.90;;;;;;4770154;30;20654;-87
2021/05/30 08:16:51;;;;;;;7.47;5.75;;;12.50;99.90;;;;;;4758210;30;20215;-84
2021/05/30 08:19:17;;;;;;;7.13;5.15;;;12.60;99.90;;;;;;4738635;30;20667;-84
2021/05/30 08:21:44;;;;;;;6.32;4.97;;;12.70;99.90;;;;;;4730985;30;20623;-85
2021/05/30 08:24:10;;;;;;;8.02;5.15;;;12.80;99.90;;;;;;4747809;30;20242;-85
2021/05/30 08:26:36;;;;;;;5.57;4.60;;;13.00;99.90;;;;;;4722605;30;20571;-85
2021/05/30 08:29:02;;;;;;;6.90;5.20;;;13.10;99.90;;;;;;4735407;30;20205;-84
2021/05/30 08:31:28;;;;;;;5.53;4.80;;;13.20;99.90;;;;;;4752889;30;20442;-86
2021/05/30 08:33:53;;;;;;;6.32;4.60;;;13.20;99.90;;;;;;4735927;30;20724;-84
2021/05/30 08:36:19;;;;;;;9.68;5.18;;;13.20;99.90;;;;;;4750954;30;20231;-86
2021/05/30 08:38:45;;;;;;;6.00;4.72;;;13.10;99.90;;;;;;4735887;30;20691;-85
2021/05/30 08:41:11;;;;;;;6.75;4.93;;;13.00;99.90;;;;;;4736242;30;20230;-87
2021/05/30 08:43:37;;;;;;;5.20;4.70;;;13.00;99.90;;;;;;4735478;30;20265;-86
2021/05/30 08:46:03;;;;;;;4.95;4.45;;;13.00;99.90;;;;;;4736081;30;20237;-85
2021/05/30 08:48:29;;;;;;;7.10;4.93;;;13.00;99.90;;;;;;4752060;30;20617;-85
2021/05/30 08:51:03;;;;;;;5.43;4.13;;;13.00;99.90;;;;;;4736261;30;20207;-87
2021/05/30 08:53:37;;;;;;;5.90;4.35;;;13.10;99.90;;;;;;4742991;30;20206;-86
2021/05/30 08:56:05;;;;;;;7.80;4.75;;;13.10;99.90;;;;;;4752374;30;20222;-86
2021/05/30 08:58:37;;;;;;;6.05;4.57;;;13.20;99.90;;;;;;4751746;30;20199;-86
2021/05/30 09:01:47;;;;;;;5.13;4.10;;;13.50;99.90;;;;;;4740771;30;20178;-85
2021/05/30 09:04:14;;;;;;;4.13;3.60;;;13.30;99.90;;;;;;4752104;30;20203;-84
2021/05/30 09:06:44;;;;;;;4.93;3.33;;;13.40;99.90;;;;;;4733050;30;20198;-85
2021/05/30 09:09:12;;;;;;;4.35;3.28;;;13.60;99.90;;;;;;4735180;30;20590;-85
2021/05/30 09:11:44;;;;;;;3.80;3.30;;;13.80;99.90;;;;;;4748523;30;20186;-83
2021/05/30 09:14:15;;;;;;;4.53;3.55;;;13.80;99.90;;;;;;4747304;30;20688;-84
2021/05/30 09:16:54;;;;;;;4.05;3.13;;;13.80;99.90;;;;;;4751203;30;20202;-83
2021/05/30 09:19:36;;;;;;;5.85;3.53;;;13.70;99.90;;;;;;4751139;30;20200;-85
2021/05/30 09:22:36;;;;;;;8.90;3.80;;;13.70;99.90;;;;;;4749945;30;20195;-84
2021/05/30 09:25:12;;;;;;;4.72;3.10;;;13.70;99.90;;;;;;4750542;30;20241;-85
2021/05/30 09:28:01;;;;;;;4.20;3.00;;;13.70;99.90;;;;;;4751425;30;20186;-85
2021/05/30 09:30:30;;;;;;;4.72;3.83;;;13.70;99.90;;;;;;4735173;30;20203;-86
2021/05/30 09:33:04;;;;;;;4.40;3.80;;;13.70;99.90;;;;;;4737883;30;20491;-83
2021/05/30 09:35:36;;;;;;;3.75;3.42;;;14.00;99.90;;;;;;4737094;30;20240;-84
2021/05/30 09:38:12;;;;;;;4.38;3.50;;;11.10;99.90;;;;;;4738601;30;20230;-83
2021/05/30 09:40:48;;;;;;;5.53;3.30;;;14.30;99.90;;;;;;4734117;30;20337;-84
2021/05/30 09:43:18;;;;;;;3.85;3.47;;;14.20;99.90;;;;;;4737580;30;20194;-84
2021/05/30 09:45:58;;;;;;;6.35;4.57;;;14.40;99.90;;;;;;4749601;30;20202;-85
2021/05/30 09:48:24;;;;;;;3.47;3.15;;;14.20;99.90;;;;;;4732871;30;20187;-85
2021/05/30 09:51:04;;;;;;;8.00;4.13;;;14.10;99.90;;;;;;4751922;30;20203;-84
2021/05/30 09:53:35;;;;;;;3.80;3.28;;;14.10;99.90;;;;;;4736330;30;20182;-83
2021/05/30 09:56:01;;;;;;;4.95;3.30;;;14.00;99.90;;;;;;4752285;30;20265;-83
2021/05/30 09:58:27;;;;;;;5.30;3.25;;;14.00;99.90;;;;;;4721930;30;20200;-83
2021/05/30 10:00:56;;;;;;;4.50;3.50;;;13.90;99.90;;;;;;4751642;30;20194;-82
2021/05/30 10:03:22;;;;;;;4.43;3.63;;;13.80;99.90;;;;;;4751674;30;20190;-82
2021/05/30 10:05:48;;;;;;;5.07;3.25;;;13.80;99.90;;;;;;4735622;30;20195;-83
2021/05/30 10:08:18;;;;;;;4.28;3.17;;;13.80;99.90;;;;;;4736621;30;20214;-81
2021/05/30 10:10:45;;;;;;;4.53;3.30;;;13.90;99.90;;;;;;4736617;30;20307;-82
2021/05/30 10:13:12;;;;;;;5.97;3.88;;;13.90;99.90;;;;;;4719505;30;20674;-83
2021/05/30 10:15:39;;;;;;;4.78;3.67;;;14.00;99.90;;;;;;4720993;30;20230;-83
2021/05/30 10:18:18;;;;;;;5.47;4.03;;;14.00;99.90;;;;;;4722159;30;20186;-83
2021/05/30 10:20:47;;;;;;;6.00;3.58;;;14.00;99.90;;;;;;4736098;30;20182;-82
2021/05/30 10:23:17;;;;;;;4.28;3.45;;;14.00;99.90;;;;;;4736311;30;20194;-84
2021/05/30 10:25:43;;;;;;;4.68;3.97;;;14.10;99.90;;;;;;4735421;30;20228;-83
2021/05/30 10:28:20;;;;;;;8.45;3.72;;;14.10;99.90;;;;;;4734758;30;20186;-83
2021/05/30 10:30:46;;;;;;;4.65;3.33;;;14.10;99.90;;;;;;4719814;30;20783;-83
2021/05/30 10:33:27;;;;;;;4.50;3.47;;;14.10;99.90;;;;;;4734207;30;20226;-83
2021/05/30 10:35:54;;;;;;;6.43;4.70;;;14.10;99.90;;;;;;4735037;30;20784;-84
2021/05/30 10:38:37;;;;;;;7.78;4.80;;;14.10;99.90;;;;;;4738955;30;20190;-83
2021/05/30 10:41:32;;;;;;;6.75;4.95;;;14.00;99.90;;;;;;4741171;30;20190;-84
2021/05/30 10:43:57;;;;;;;10.02;5.63;;;13.80;99.90;;;;;;4720048;30;20244;-82
2021/05/30 10:46:23;;;;;;;13.38;5.68;;;13.70;99.90;;;;;;4736562;30;20229;-83
2021/05/30 10:49:08;;;;;;;9.32;5.25;;;13.60;99.90;;;;;;4736340;30;20191;-82
2021/05/30 10:51:47;;;;;;;12.98;6.35;;;13.30;99.90;;;;;;4751883;30;20186;-81
2021/05/30 10:54:13;;;;;;;10.15;5.60;;;13.50;99.90;;;;;;4755189;30;20171;-82
2021/05/30 10:56:46;;;;;;;13.32;6.20;;;13.60;99.90;;;;;;4739393;30;20227;-82
2021/05/30 10:59:15;;;;;;;11.25;5.85;;;13.70;99.90;;;;;;4755487;30;20186;-82
2021/05/30 11:01:48;;;;;;;9.57;6.43;;;13.60;99.90;;;;;;4740235;30;20285;-82
2021/05/30 11:04:26;;;;;;;8.43;5.78;;;13.60;99.90;;;;;;4740033;30;20236;-82
2021/05/30 11:07:11;;;;;;;9.63;6.05;;;13.50;99.90;;;;;;4739256;30;20237;-81
2021/05/30 11:09:53;;;;;;;9.90;6.25;;;13.50;99.90;;;;;;4749387;30;20190;-83
2021/05/30 11:12:24;;;;;;;8.20;6.38;;;13.50;99.90;;;;;;4742711;30;20221;-81
2021/05/30 11:15:09;;;;;;;7.72;5.50;;;13.60;99.90;;;;;;4758661;30;20288;-82
2021/05/30 11:17:35;;;;;;;5.43;3.50;;;13.80;99.90;;;;;;4741119;30;20187;-84
2021/05/30 11:20:01;;;;;;;6.63;3.80;;;13.90;99.90;;;;;;4713247;30;20191;-81
2021/05/30 11:22:38;;;;;;;6.50;3.92;;;13.90;99.90;;;;;;4708327;30;20227;-82
2021/05/30 11:25:04;;;;;;;3.83;3.20;;;14.10;99.90;;;;;;4692997;30;20258;-82
2021/05/30 11:28:01;;;;;;;5.03;3.40;;;14.30;99.90;;;;;;4719870;30;20809;-82
2021/05/30 11:30:45;;;;;;;4.18;3.22;;;14.30;99.90;;;;;;4719304;30;20525;-83
2021/05/30 11:33:15;;;;;;;7.40;3.85;;;14.40;99.90;;;;;;4704174;30;20290;-82
2021/05/30 11:35:42;;;;;;;4.25;3.80;;;14.30;99.90;;;;;;4704018;30;20321;-82
2021/05/30 11:38:08;;;;;;;5.25;3.15;;;14.30;99.90;;;;;;4689410;30;20199;-84
2021/05/30 11:40:35;;;;;;;7.18;2.90;;;14.20;99.90;;;;;;4719619;30;20560;-83
2021/05/30 11:43:18;;;;;;;3.40;3.10;;;14.10;99.90;;;;;;4704215;30;20668;-83
2021/05/30 11:45:46;;;;;;;3.25;2.95;;;14.10;99.90;;;;;;4704207;30;20196;-83
2021/05/30 11:48:17;;;;;;;3.65;3.00;;;14.00;99.90;;;;;;4703686;30;20322;-84
2021/05/30 11:50:53;;;;;;;5.10;3.47;;;14.00;99.90;;;;;;4719717;30;20211;-83
2021/05/30 11:53:35;;;;;;;4.75;2.90;;;14.00;99.90;;;;;;4719493;30;20270;-84
2021/05/30 11:56:06;;;;;;;4.53;2.72;;;14.10;99.90;;;;;;4719719;30;20314;-83
2021/05/30 11:58:43;;;;;;;2.83;2.50;;;14.00;99.90;;;;;;4719098;30;20721;-84
2021/05/30 12:01:09;;;;;;;3.13;2.70;;;14.00;99.90;;;;;;4705692;30;20199;-84
2021/05/30 12:03:35;;;;;;;4.20;3.17;;;14.00;99.90;;;;;;4688957;30;20591;-84
2021/05/30 12:06:03;;;;;;;3.25;2.85;;;14.10;99.90;;;;;;4719201;30;20195;-82
2021/05/30 12:08:30;;;;;;;4.50;2.80;;;14.20;99.90;;;;;;4718924;30;20184;-83
2021/05/30 12:11:01;;;;;;;3.17;2.75;;;14.40;99.90;;;;;;4704673;30;20686;-83
2021/05/30 12:13:26;;;;;;;4.40;3.22;;;14.50;99.90;;;;;;4703597;30;20184;-83
2021/05/30 12:15:52;;;;;;;3.92;3.05;;;14.80;99.90;;;;;;4703254;30;20223;-83
2021/05/30 12:18:18;;;;;;;4.03;2.55;;;14.90;99.90;;;;;;4688433;30;20196;-83
2021/05/30 12:20:44;;;;;;;5.15;3.20;;;15.00;99.90;;;;;;4718969;30;20247;-83
2021/05/30 12:23:15;;;;;;;3.78;2.28;;;15.10;99.90;;;;;;4720668;30;20196;-82
2021/05/30 12:25:55;;;;;;;2.33;1.80;;;14.90;99.90;;;;;;4721121;30;20195;-83
2021/05/30 12:28:30;;;;;;;3.67;2.38;;;14.70;99.90;;;;;;4721352;30;20638;-82
2021/05/30 12:30:56;;;;;;;3.70;1.70;;;14.50;99.90;;;;;;4721113;30;20656;-82
2021/05/30 12:33:24;;;;;;;3.38;1.65;;;14.10;99.90;;;;;;4736142;30;20291;-81
2021/05/30 12:35:55;;;;;;;4.93;2.70;;;14.00;99.90;;;;;;4736153;30;20211;-82
2021/05/30 12:38:25;;;;;;;5.72;2.83;;;13.90;99.90;;;;;;4735929;30;20184;-83
2021/05/30 12:40:51;;;;;;;3.00;2.40;;;13.90;99.90;;;;;;4720505;30;20223;-83
2021/05/30 12:43:33;;;;;;;2.88;1.63;;;14.00;99.90;;;;;;4735652;30;20219;-84
2021/05/30 12:46:09;;;;;;;2.22;1.85;;;14.00;99.90;;;;;;4720334;30;20662;-83
2021/05/30 12:48:43;;;;;;;2.17;1.80;;;14.10;99.90;;;;;;4720671;30;20202;-84
2021/05/30 12:51:19;;;;;;;1.85;1.50;;;14.20;99.90;;;;;;4736177;30;20179;-83